sensor_id;sensor_type;location;lat;lon;timestamp;temperature;humidity
32366;DHT22;18837;46.832;16.838;2023-09-19T00:02:05;22.70;87.90
32366;DHT22;18837;46.832;16.838;2023-09-19T00:07:59;22.70;87.90
32366;DHT22;18837;46.832;16.838;2023-09-19T00:10:25;22.70;87.80
32366;DHT22;18837;46.832;16.838;2023-09-19T00:12:54;22.70;87.60
32366;DHT22;18837;46.832;16.838;2023-09-19T00:15:48;22.70;87.90
32366;DHT22;18837;46.832;16.838;2023-09-19T00:18:17;22.70;87.70
32366;DHT22;18837;46.832;16.838;2023-09-19T00:20:47;22.60;87.70
32366;DHT22;18837;46.832;16.838;2023-09-19T00:23:17;22.60;87.60
32366;DHT22;18837;46.832;16.838;2023-09-19T00:25:42;22.60;87.70
32366;DHT22;18837;46.832;16.838;2023-09-19T00:28:08;22.60;87.80
32366;DHT22;18837;46.832;16.838;2023-09-19T00:31:03;22.60;87.90
32366;DHT22;18837;46.832;16.838;2023-09-19T00:33:58;22.60;88.00
32366;DHT22;18837;46.832;16.838;2023-09-19T00:36:25;22.60;88.00
32366;DHT22;18837;46.832;16.838;2023-09-19T00:38:51;22.60;87.50
32366;DHT22;18837;46.832;16.838;2023-09-19T00:41:17;22.60;87.70
32366;DHT22;18837;46.832;16.838;2023-09-19T00:43:43;22.60;87.70
32366;DHT22;18837;46.832;16.838;2023-09-19T00:46:08;22.60;87.60
32366;DHT22;18837;46.832;16.838;2023-09-19T00:48:56;22.60;87.90
32366;DHT22;18837;46.832;16.838;2023-09-19T00:51:26;22.60;88.00
32366;DHT22;18837;46.832;16.838;2023-09-19T00:53:53;22.60;87.80
32366;DHT22;18837;46.832;16.838;2023-09-19T00:56:19;22.60;87.90
32366;DHT22;18837;46.832;16.838;2023-09-19T00:58:46;22.60;87.60
32366;DHT22;18837;46.832;16.838;2023-09-19T01:01:13;22.60;87.70
32366;DHT22;18837;46.832;16.838;2023-09-19T01:04:00;22.60;87.90
32366;DHT22;18837;46.832;16.838;2023-09-19T01:06:47;22.60;87.90
32366;DHT22;18837;46.832;16.838;2023-09-19T01:09:38;22.60;88.00
32366;DHT22;18837;46.832;16.838;2023-09-19T01:12:05;22.60;87.90
32366;DHT22;18837;46.832;16.838;2023-09-19T01:17:41;22.60;87.90
32366;DHT22;18837;46.832;16.838;2023-09-19T01:20:19;22.60;88.20
32366;DHT22;18837;46.832;16.838;2023-09-19T01:23:28;22.60;88.10
32366;DHT22;18837;46.832;16.838;2023-09-19T01:26:17;22.50;88.20
32366;DHT22;18837;46.832;16.838;2023-09-19T01:31:40;22.60;88.10
32366;DHT22;18837;46.832;16.838;2023-09-19T01:34:08;22.60;88.00
32366;DHT22;18837;46.832;16.838;2023-09-19T01:36:36;22.60;88.00
32366;DHT22;18837;46.832;16.838;2023-09-19T01:39:18;22.50;88.00
32366;DHT22;18837;46.832;16.838;2023-09-19T01:45:21;22.50;88.20
32366;DHT22;18837;46.832;16.838;2023-09-19T01:47:54;22.50;88.00
32366;DHT22;18837;46.832;16.838;2023-09-19T01:53:43;22.50;88.20
32366;DHT22;18837;46.832;16.838;2023-09-19T01:56:21;22.50;88.10
32366;DHT22;18837;46.832;16.838;2023-09-19T01:59:10;22.50;88.00
32366;DHT22;18837;46.832;16.838;2023-09-19T02:01:37;22.50;88.10
32366;DHT22;18837;46.832;16.838;2023-09-19T02:04:03;22.50;88.10
32366;DHT22;18837;46.832;16.838;2023-09-19T02:06:29;22.50;88.20
32366;DHT22;18837;46.832;16.838;2023-09-19T02:08:55;22.50;88.30
32366;DHT22;18837;46.832;16.838;2023-09-19T02:11:21;22.40;87.40
32366;DHT22;18837;46.832;16.838;2023-09-19T02:14:12;22.40;88.10
32366;DHT22;18837;46.832;16.838;2023-09-19T02:17:03;22.40;88.60
32366;DHT22;18837;46.832;16.838;2023-09-19T02:19:33;22.40;88.50
32366;DHT22;18837;46.832;16.838;2023-09-19T02:21:59;22.40;88.20
32366;DHT22;18837;46.832;16.838;2023-09-19T02:24:25;22.40;88.20
32366;DHT22;18837;46.832;16.838;2023-09-19T02:26:52;22.40;88.30
32366;DHT22;18837;46.832;16.838;2023-09-19T02:29:18;22.40;88.30
32366;DHT22;18837;46.832;16.838;2023-09-19T02:31:43;22.40;88.30
32366;DHT22;18837;46.832;16.838;2023-09-19T02:34:17;22.40;88.30
32366;DHT22;18837;46.832;16.838;2023-09-19T02:36:43;22.40;88.20
32366;DHT22;18837;46.832;16.838;2023-09-19T02:39:10;22.40;88.30
32366;DHT22;18837;46.832;16.838;2023-09-19T02:41:36;22.40;88.20
32366;DHT22;18837;46.832;16.838;2023-09-19T02:44:02;22.40;88.40
32366;DHT22;18837;46.832;16.838;2023-09-19T02:46:30;22.40;88.40
32366;DHT22;18837;46.832;16.838;2023-09-19T02:49:11;22.30;88.40
32366;DHT22;18837;46.832;16.838;2023-09-19T02:51:54;22.30;88.20
32366;DHT22;18837;46.832;16.838;2023-09-19T02:54:20;22.40;88.40
32366;DHT22;18837;46.832;16.838;2023-09-19T02:56:46;22.30;88.30
32366;DHT22;18837;46.832;16.838;2023-09-19T02:59:12;22.30;88.30
32366;DHT22;18837;46.832;16.838;2023-09-19T03:01:38;22.30;88.40
32366;DHT22;18837;46.832;16.838;2023-09-19T03:04:04;22.30;88.50
32366;DHT22;18837;46.832;16.838;2023-09-19T03:06:40;22.30;88.70
32366;DHT22;18837;46.832;16.838;2023-09-19T03:09:06;22.30;88.60
32366;DHT22;18837;46.832;16.838;2023-09-19T03:11:39;22.30;88.70
32366;DHT22;18837;46.832;16.838;2023-09-19T03:14:06;22.30;88.30
32366;DHT22;18837;46.832;16.838;2023-09-19T03:16:32;22.30;88.50
32366;DHT22;18837;46.832;16.838;2023-09-19T03:18:58;22.30;88.50
32366;DHT22;18837;46.832;16.838;2023-09-19T03:21:25;22.30;89.10
32366;DHT22;18837;46.832;16.838;2023-09-19T03:24:09;22.20;88.80
32366;DHT22;18837;46.832;16.838;2023-09-19T03:26:57;22.20;88.40
32366;DHT22;18837;46.832;16.838;2023-09-19T03:29:23;22.20;88.70
32366;DHT22;18837;46.832;16.838;2023-09-19T03:31:48;22.20;88.50
32366;DHT22;18837;46.832;16.838;2023-09-19T03:34:14;22.20;88.70
32366;DHT22;18837;46.832;16.838;2023-09-19T03:36:40;22.20;88.60
32366;DHT22;18837;46.832;16.838;2023-09-19T03:39:06;22.20;88.50
32366;DHT22;18837;46.832;16.838;2023-09-19T03:41:48;22.20;88.60
32366;DHT22;18837;46.832;16.838;2023-09-19T03:44:15;22.20;88.60
32366;DHT22;18837;46.832;16.838;2023-09-19T03:46:40;22.20;88.50
32366;DHT22;18837;46.832;16.838;2023-09-19T03:49:06;22.20;88.70
32366;DHT22;18837;46.832;16.838;2023-09-19T03:51:32;22.20;88.50
32366;DHT22;18837;46.832;16.838;2023-09-19T03:54:00;22.20;88.70
32366;DHT22;18837;46.832;16.838;2023-09-19T03:56:37;22.20;88.80
32366;DHT22;18837;46.832;16.838;2023-09-19T03:59:31;22.20;88.70
32366;DHT22;18837;46.832;16.838;2023-09-19T04:02:06;22.20;89.30
32366;DHT22;18837;46.832;16.838;2023-09-19T04:04:37;22.20;89.20
32366;DHT22;18837;46.832;16.838;2023-09-19T04:07:03;22.10;89.00
32366;DHT22;18837;46.832;16.838;2023-09-19T04:09:28;22.10;89.10
32366;DHT22;18837;46.832;16.838;2023-09-19T04:11:54;22.10;89.10
32366;DHT22;18837;46.832;16.838;2023-09-19T04:14:20;22.10;89.20
32366;DHT22;18837;46.832;16.838;2023-09-19T04:16:52;22.10;89.20
32366;DHT22;18837;46.832;16.838;2023-09-19T04:19:18;22.10;89.20
32366;DHT22;18837;46.832;16.838;2023-09-19T04:21:44;22.10;89.10
32366;DHT22;18837;46.832;16.838;2023-09-19T04:24:10;22.10;89.40
32366;DHT22;18837;46.832;16.838;2023-09-19T04:26:36;22.10;89.40
32366;DHT22;18837;46.832;16.838;2023-09-19T04:29:02;22.10;89.40
32366;DHT22;18837;46.832;16.838;2023-09-19T04:31:38;22.10;89.50
32366;DHT22;18837;46.832;16.838;2023-09-19T04:34:27;22.10;89.60
32366;DHT22;18837;46.832;16.838;2023-09-19T04:36:53;22.10;90.00
32366;DHT22;18837;46.832;16.838;2023-09-19T04:39:19;22.10;89.50
32366;DHT22;18837;46.832;16.838;2023-09-19T04:41:44;22.10;89.70
32366;DHT22;18837;46.832;16.838;2023-09-19T04:44:13;22.10;89.70
32366;DHT22;18837;46.832;16.838;2023-09-19T04:46:39;22.00;89.50
32366;DHT22;18837;46.832;16.838;2023-09-19T04:49:05;22.00;89.60
32366;DHT22;18837;46.832;16.838;2023-09-19T04:51:31;22.20;89.60
32366;DHT22;18837;46.832;16.838;2023-09-19T04:54:00;22.00;89.80
32366;DHT22;18837;46.832;16.838;2023-09-19T04:56:26;22.00;89.70
32366;DHT22;18837;46.832;16.838;2023-09-19T04:58:54;22.00;89.70
32366;DHT22;18837;46.832;16.838;2023-09-19T05:01:20;22.00;89.80
32366;DHT22;18837;46.832;16.838;2023-09-19T05:03:48;22.00;89.70
32366;DHT22;18837;46.832;16.838;2023-09-19T05:06:20;22.00;89.70
32366;DHT22;18837;46.832;16.838;2023-09-19T05:08:47;22.00;90.00
32366;DHT22;18837;46.832;16.838;2023-09-19T05:11:17;22.00;89.90
32366;DHT22;18837;46.832;16.838;2023-09-19T05:13:43;21.90;89.80
32366;DHT22;18837;46.832;16.838;2023-09-19T05:16:09;21.90;89.80
32366;DHT22;18837;46.832;16.838;2023-09-19T05:18:35;21.90;89.90
32366;DHT22;18837;46.832;16.838;2023-09-19T05:21:09;21.90;90.00
32366;DHT22;18837;46.832;16.838;2023-09-19T05:23:36;21.90;90.00
32366;DHT22;18837;46.832;16.838;2023-09-19T05:26:02;21.90;90.00
32366;DHT22;18837;46.832;16.838;2023-09-19T05:28:29;21.90;90.30
32366;DHT22;18837;46.832;16.838;2023-09-19T05:30:55;21.90;90.40
32366;DHT22;18837;46.832;16.838;2023-09-19T05:33:21;21.90;90.10
32366;DHT22;18837;46.832;16.838;2023-09-19T05:35:55;21.90;90.10
32366;DHT22;18837;46.832;16.838;2023-09-19T05:38:40;21.90;90.10
32366;DHT22;18837;46.832;16.838;2023-09-19T05:41:19;21.90;90.10
32366;DHT22;18837;46.832;16.838;2023-09-19T05:43:45;21.90;90.10
32366;DHT22;18837;46.832;16.838;2023-09-19T05:46:11;21.90;90.00
32366;DHT22;18837;46.832;16.838;2023-09-19T05:48:36;21.90;90.00
32366;DHT22;18837;46.832;16.838;2023-09-19T05:51:05;21.90;90.10
32366;DHT22;18837;46.832;16.838;2023-09-19T05:53:30;21.80;90.10
32366;DHT22;18837;46.832;16.838;2023-09-19T05:56:01;21.80;90.50
32366;DHT22;18837;46.832;16.838;2023-09-19T05:58:28;21.80;90.10
32366;DHT22;18837;46.832;16.838;2023-09-19T06:00:54;21.80;90.20
32366;DHT22;18837;46.832;16.838;2023-09-19T06:03:20;21.80;90.10
32366;DHT22;18837;46.832;16.838;2023-09-19T06:05:46;21.80;90.10
32366;DHT22;18837;46.832;16.838;2023-09-19T06:08:14;21.80;90.20
32366;DHT22;18837;46.832;16.838;2023-09-19T06:11:04;21.80;90.20
32366;DHT22;18837;46.832;16.838;2023-09-19T06:13:56;21.80;90.30
32366;DHT22;18837;46.832;16.838;2023-09-19T06:16:23;21.80;90.30
32366;DHT22;18837;46.832;16.838;2023-09-19T06:18:49;21.80;90.20
32366;DHT22;18837;46.832;16.838;2023-09-19T06:21:15;21.80;90.30
32366;DHT22;18837;46.832;16.838;2023-09-19T06:23:41;21.80;90.40
32366;DHT22;18837;46.832;16.838;2023-09-19T06:26:06;21.80;90.30
32366;DHT22;18837;46.832;16.838;2023-09-19T06:28:33;21.80;90.30
32366;DHT22;18837;46.832;16.838;2023-09-19T06:31:05;21.80;90.40
32366;DHT22;18837;46.832;16.838;2023-09-19T06:33:36;21.70;90.30
32366;DHT22;18837;46.832;16.838;2023-09-19T06:36:06;21.80;90.30
32366;DHT22;18837;46.832;16.838;2023-09-19T06:38:32;21.70;90.30
32366;DHT22;18837;46.832;16.838;2023-09-19T06:41:00;21.70;90.30
32366;DHT22;18837;46.832;16.838;2023-09-19T06:43:27;21.80;90.40
32366;DHT22;18837;46.832;16.838;2023-09-19T06:46:30;21.80;90.20
32366;DHT22;18837;46.832;16.838;2023-09-19T06:49:28;21.70;90.40
32366;DHT22;18837;46.832;16.838;2023-09-19T06:51:55;21.70;90.40
32366;DHT22;18837;46.832;16.838;2023-09-19T06:54:21;21.70;90.30
32366;DHT22;18837;46.832;16.838;2023-09-19T06:56:47;21.70;90.30
32366;DHT22;18837;46.832;16.838;2023-09-19T06:59:12;21.70;90.40
32366;DHT22;18837;46.832;16.838;2023-09-19T07:09:25;21.70;90.50
32366;DHT22;18837;46.832;16.838;2023-09-19T07:11:53;21.70;90.50
32366;DHT22;18837;46.832;16.838;2023-09-19T07:14:19;21.70;90.40
32366;DHT22;18837;46.832;16.838;2023-09-19T07:16:48;21.70;90.50
32366;DHT22;18837;46.832;16.838;2023-09-19T07:19:15;21.70;90.40
32366;DHT22;18837;46.832;16.838;2023-09-19T07:22:04;21.70;90.50
32366;DHT22;18837;46.832;16.838;2023-09-19T07:24:39;21.70;90.50
32366;DHT22;18837;46.832;16.838;2023-09-19T07:27:04;21.70;90.30
32366;DHT22;18837;46.832;16.838;2023-09-19T07:29:31;21.70;90.30
32366;DHT22;18837;46.832;16.838;2023-09-19T07:31:56;21.70;90.50
32366;DHT22;18837;46.832;16.838;2023-09-19T07:34:22;21.70;90.40
32366;DHT22;18837;46.832;16.838;2023-09-19T07:36:50;21.70;90.40
32366;DHT22;18837;46.832;16.838;2023-09-19T07:39:19;21.70;90.20
32366;DHT22;18837;46.832;16.838;2023-09-19T07:41:45;21.70;90.40
32366;DHT22;18837;46.832;16.838;2023-09-19T07:44:10;21.70;90.30
32366;DHT22;18837;46.832;16.838;2023-09-19T07:46:36;21.70;90.30
32366;DHT22;18837;46.832;16.838;2023-09-19T07:49:02;21.70;90.30
32366;DHT22;18837;46.832;16.838;2023-09-19T07:51:28;21.70;90.30
32366;DHT22;18837;46.832;16.838;2023-09-19T07:53:54;21.70;90.30
32366;DHT22;18837;46.832;16.838;2023-09-19T07:56:44;21.70;90.30
32366;DHT22;18837;46.832;16.838;2023-09-19T07:59:16;21.70;90.40
32366;DHT22;18837;46.832;16.838;2023-09-19T08:01:43;21.80;90.30
32366;DHT22;18837;46.832;16.838;2023-09-19T08:04:09;21.80;90.30
32366;DHT22;18837;46.832;16.838;2023-09-19T08:06:35;21.80;90.20
32366;DHT22;18837;46.832;16.838;2023-09-19T08:09:01;21.80;90.30
32366;DHT22;18837;46.832;16.838;2023-09-19T08:11:32;21.90;90.20
32366;DHT22;18837;46.832;16.838;2023-09-19T08:14:10;21.90;90.20
32366;DHT22;18837;46.832;16.838;2023-09-19T08:16:40;21.90;90.20
32366;DHT22;18837;46.832;16.838;2023-09-19T08:19:05;21.90;90.20
32366;DHT22;18837;46.832;16.838;2023-09-19T08:21:31;21.90;90.20
32366;DHT22;18837;46.832;16.838;2023-09-19T08:23:57;21.90;90.10
32366;DHT22;18837;46.832;16.838;2023-09-19T08:26:23;21.90;90.10
32366;DHT22;18837;46.832;16.838;2023-09-19T08:28:50;21.90;90.20
32366;DHT22;18837;46.832;16.838;2023-09-19T08:31:25;21.90;90.30
32366;DHT22;18837;46.832;16.838;2023-09-19T08:34:04;21.90;90.40
32366;DHT22;18837;46.832;16.838;2023-09-19T08:36:29;21.90;90.50
32366;DHT22;18837;46.832;16.838;2023-09-19T08:38:56;22.00;90.40
32366;DHT22;18837;46.832;16.838;2023-09-19T08:41:22;22.00;90.40
32366;DHT22;18837;46.832;16.838;2023-09-19T08:43:47;22.00;90.40
32366;DHT22;18837;46.832;16.838;2023-09-19T08:46:16;22.00;90.70
32366;DHT22;18837;46.832;16.838;2023-09-19T08:49:01;22.00;90.40
32366;DHT22;18837;46.832;16.838;2023-09-19T08:51:42;22.10;90.30
32366;DHT22;18837;46.832;16.838;2023-09-19T08:54:40;22.10;90.40
32366;DHT22;18837;46.832;16.838;2023-09-19T08:57:07;22.10;90.20
32366;DHT22;18837;46.832;16.838;2023-09-19T08:59:37;22.20;90.10
32366;DHT22;18837;46.832;16.838;2023-09-19T09:02:11;22.20;90.10
32366;DHT22;18837;46.832;16.838;2023-09-19T09:04:45;22.20;90.00
32366;DHT22;18837;46.832;16.838;2023-09-19T09:07:11;22.30;90.00
32366;DHT22;18837;46.832;16.838;2023-09-19T09:09:39;22.30;89.90
32366;DHT22;18837;46.832;16.838;2023-09-19T09:12:12;22.40;90.00
32366;DHT22;18837;46.832;16.838;2023-09-19T09:14:39;22.40;90.00
32366;DHT22;18837;46.832;16.838;2023-09-19T09:17:05;22.50;90.00
32366;DHT22;18837;46.832;16.838;2023-09-19T09:19:47;22.50;90.00
32366;DHT22;18837;46.832;16.838;2023-09-19T09:22:33;22.60;90.50
32366;DHT22;18837;46.832;16.838;2023-09-19T09:24:59;22.60;90.70
32366;DHT22;18837;46.832;16.838;2023-09-19T09:27:30;22.70;90.60
32366;DHT22;18837;46.832;16.838;2023-09-19T09:29:58;22.70;90.70
32366;DHT22;18837;46.832;16.838;2023-09-19T09:32:29;22.80;90.60
32366;DHT22;18837;46.832;16.838;2023-09-19T09:35:00;22.80;90.60
32366;DHT22;18837;46.832;16.838;2023-09-19T09:37:44;22.90;90.60
32366;DHT22;18837;46.832;16.838;2023-09-19T09:40:12;22.90;90.90
32366;DHT22;18837;46.832;16.838;2023-09-19T09:42:41;23.00;91.10
32366;DHT22;18837;46.832;16.838;2023-09-19T09:47:44;23.10;91.60
32366;DHT22;18837;46.832;16.838;2023-09-19T09:50:30;23.10;91.70
32366;DHT22;18837;46.832;16.838;2023-09-19T09:53:35;23.20;91.70
32366;DHT22;18837;46.832;16.838;2023-09-19T09:56:11;23.20;91.60
32366;DHT22;18837;46.832;16.838;2023-09-19T10:01:14;23.20;91.50
32366;DHT22;18837;46.832;16.838;2023-09-19T10:03:42;23.30;91.50
32366;DHT22;18837;46.832;16.838;2023-09-19T10:06:16;23.30;91.70
32366;DHT22;18837;46.832;16.838;2023-09-19T10:09:08;23.40;91.60
32366;DHT22;18837;46.832;16.838;2023-09-19T10:11:47;23.40;91.60
32366;DHT22;18837;46.832;16.838;2023-09-19T10:14:37;23.40;91.30
32366;DHT22;18837;46.832;16.838;2023-09-19T10:17:05;23.40;91.10
32366;DHT22;18837;46.832;16.838;2023-09-19T10:19:46;23.50;90.90
32366;DHT22;18837;46.832;16.838;2023-09-19T10:22:19;23.40;90.80
32366;DHT22;18837;46.832;16.838;2023-09-19T10:24:48;23.40;91.10
32366;DHT22;18837;46.832;16.838;2023-09-19T10:27:37;23.50;91.10
32366;DHT22;18837;46.832;16.838;2023-09-19T10:30:23;23.50;91.10
32366;DHT22;18837;46.832;16.838;2023-09-19T10:33:12;23.50;91.00
32366;DHT22;18837;46.832;16.838;2023-09-19T10:35:39;23.50;91.10
32366;DHT22;18837;46.832;16.838;2023-09-19T10:38:13;23.50;90.70
32366;DHT22;18837;46.832;16.838;2023-09-19T10:40:40;23.50;90.90
32366;DHT22;18837;46.832;16.838;2023-09-19T10:43:12;23.50;91.30
32366;DHT22;18837;46.832;16.838;2023-09-19T10:45:38;23.60;91.80
32366;DHT22;18837;46.832;16.838;2023-09-19T10:48:11;23.60;91.70
32366;DHT22;18837;46.832;16.838;2023-09-19T10:50:50;23.70;92.30
32366;DHT22;18837;46.832;16.838;2023-09-19T10:53:17;23.70;91.80
32366;DHT22;18837;46.832;16.838;2023-09-19T10:55:57;23.70;90.90
32366;DHT22;18837;46.832;16.838;2023-09-19T10:58:31;23.70;90.50
32366;DHT22;18837;46.832;16.838;2023-09-19T11:01:04;23.60;90.30
32366;DHT22;18837;46.832;16.838;2023-09-19T11:04:28;23.60;90.20
32366;DHT22;18837;46.832;16.838;2023-09-19T11:07:15;23.60;90.70
32366;DHT22;18837;46.832;16.838;2023-09-19T11:09:48;23.70;90.60
32366;DHT22;18837;46.832;16.838;2023-09-19T11:14:58;23.70;91.50
32366;DHT22;18837;46.832;16.838;2023-09-19T11:17:37;23.70;91.30
32366;DHT22;18837;46.832;16.838;2023-09-19T11:30:50;24.00;92.00
32366;DHT22;18837;46.832;16.838;2023-09-19T11:36:11;24.00;92.20
32366;DHT22;18837;46.832;16.838;2023-09-19T11:44:31;24.10;91.40
32366;DHT22;18837;46.832;16.838;2023-09-19T11:46:53;24.10;91.10
32366;DHT22;18837;46.832;16.838;2023-09-19T11:49:28;24.10;90.30
32366;DHT22;18837;46.832;16.838;2023-09-19T11:51:56;24.10;90.90
32366;DHT22;18837;46.832;16.838;2023-09-19T11:54:23;24.10;90.90
32366;DHT22;18837;46.832;16.838;2023-09-19T11:56:53;24.10;90.30
32366;DHT22;18837;46.832;16.838;2023-09-19T11:59:25;24.10;91.30
32366;DHT22;18837;46.832;16.838;2023-09-19T12:02:04;24.20;91.50
32366;DHT22;18837;46.832;16.838;2023-09-19T12:04:41;24.20;90.90
32366;DHT22;18837;46.832;16.838;2023-09-19T12:07:10;24.20;91.30
32366;DHT22;18837;46.832;16.838;2023-09-19T12:09:43;24.30;91.30
32366;DHT22;18837;46.832;16.838;2023-09-19T12:14:48;24.40;92.60
32366;DHT22;18837;46.832;16.838;2023-09-19T12:17:14;24.40;92.30
32366;DHT22;18837;46.832;16.838;2023-09-19T12:19:53;24.40;91.60
32366;DHT22;18837;46.832;16.838;2023-09-19T12:22:19;24.40;90.60
32366;DHT22;18837;46.832;16.838;2023-09-19T12:24:48;24.40;89.60
32366;DHT22;18837;46.832;16.838;2023-09-19T12:27:16;24.40;89.90
32366;DHT22;18837;46.832;16.838;2023-09-19T12:29:51;24.40;90.00
32366;DHT22;18837;46.832;16.838;2023-09-19T12:32:34;24.40;88.20
32366;DHT22;18837;46.832;16.838;2023-09-19T12:35:01;24.40;88.80
32366;DHT22;18837;46.832;16.838;2023-09-19T12:37:33;24.40;90.30
32366;DHT22;18837;46.832;16.838;2023-09-19T12:40:09;24.50;90.60
32366;DHT22;18837;46.832;16.838;2023-09-19T12:42:48;24.50;91.80
32366;DHT22;18837;46.832;16.838;2023-09-19T12:45:20;24.50;91.70
32366;DHT22;18837;46.832;16.838;2023-09-19T12:48:21;24.60;91.60
32366;DHT22;18837;46.832;16.838;2023-09-19T12:51:04;24.60;90.40
32366;DHT22;18837;46.832;16.838;2023-09-19T12:53:38;24.60;90.50
32366;DHT22;18837;46.832;16.838;2023-09-19T12:56:08;24.60;90.50
32366;DHT22;18837;46.832;16.838;2023-09-19T12:58:54;24.60;90.50
32366;DHT22;18837;46.832;16.838;2023-09-19T13:01:21;24.60;90.40
32366;DHT22;18837;46.832;16.838;2023-09-19T13:04:18;24.60;90.60
32366;DHT22;18837;46.832;16.838;2023-09-19T13:06:49;24.60;90.90
32366;DHT22;18837;46.832;16.838;2023-09-19T13:09:16;24.60;90.70
32366;DHT22;18837;46.832;16.838;2023-09-19T13:11:43;24.60;90.70
32366;DHT22;18837;46.832;16.838;2023-09-19T13:19:48;24.70;90.00
32366;DHT22;18837;46.832;16.838;2023-09-19T13:22:48;24.70;89.80
32366;DHT22;18837;46.832;16.838;2023-09-19T13:25:22;24.70;90.20
32366;DHT22;18837;46.832;16.838;2023-09-19T13:27:49;24.70;89.20
32366;DHT22;18837;46.832;16.838;2023-09-19T13:30:18;24.70;89.20
32366;DHT22;18837;46.832;16.838;2023-09-19T13:32:44;24.70;88.80
32366;DHT22;18837;46.832;16.838;2023-09-19T13:35:10;24.70;88.90
32366;DHT22;18837;46.832;16.838;2023-09-19T13:37:37;24.70;90.20
32366;DHT22;18837;46.832;16.838;2023-09-19T13:40:10;24.80;90.80
32366;DHT22;18837;46.832;16.838;2023-09-19T13:42:36;24.80;91.20
32366;DHT22;18837;46.832;16.838;2023-09-19T13:45:06;24.90;91.00
32366;DHT22;18837;46.832;16.838;2023-09-19T13:47:32;24.90;90.30
32366;DHT22;18837;46.832;16.838;2023-09-19T13:50:02;24.90;90.70
32366;DHT22;18837;46.832;16.838;2023-09-19T13:52:30;24.90;90.50
32366;DHT22;18837;46.832;16.838;2023-09-19T13:55:05;24.90;90.00
32366;DHT22;18837;46.832;16.838;2023-09-19T13:57:57;24.90;89.60
32366;DHT22;18837;46.832;16.838;2023-09-19T14:00:28;24.90;89.90
32366;DHT22;18837;46.832;16.838;2023-09-19T14:02:54;24.90;89.50
32366;DHT22;18837;46.832;16.838;2023-09-19T14:05:20;24.90;89.20
32366;DHT22;18837;46.832;16.838;2023-09-19T14:07:46;24.80;87.60
32366;DHT22;18837;46.832;16.838;2023-09-19T14:10:12;24.80;88.00
32366;DHT22;18837;46.832;16.838;2023-09-19T14:12:38;24.80;88.20
32366;DHT22;18837;46.832;16.838;2023-09-19T14:15:09;24.80;88.50
32366;DHT22;18837;46.832;16.838;2023-09-19T14:17:35;24.80;88.30
32366;DHT22;18837;46.832;16.838;2023-09-19T14:20:01;24.80;88.40
32366;DHT22;18837;46.832;16.838;2023-09-19T14:22:27;24.80;88.20
32366;DHT22;18837;46.832;16.838;2023-09-19T14:24:53;24.80;87.70
32366;DHT22;18837;46.832;16.838;2023-09-19T14:27:19;24.80;87.40
32366;DHT22;18837;46.832;16.838;2023-09-19T14:29:45;24.80;86.80
32366;DHT22;18837;46.832;16.838;2023-09-19T14:32:11;24.80;86.50
32366;DHT22;18837;46.832;16.838;2023-09-19T14:34:39;24.80;86.50
32366;DHT22;18837;46.832;16.838;2023-09-19T14:37:08;24.80;86.90
32366;DHT22;18837;46.832;16.838;2023-09-19T14:39:34;24.70;87.00
32366;DHT22;18837;46.832;16.838;2023-09-19T14:42:00;24.70;86.40
32366;DHT22;18837;46.832;16.838;2023-09-19T14:44:25;24.70;87.00
32366;DHT22;18837;46.832;16.838;2023-09-19T14:46:51;24.70;87.40
32366;DHT22;18837;46.832;16.838;2023-09-19T14:49:22;24.70;87.20
32366;DHT22;18837;46.832;16.838;2023-09-19T14:51:48;24.70;87.20
32366;DHT22;18837;46.832;16.838;2023-09-19T14:54:15;24.70;86.90
32366;DHT22;18837;46.832;16.838;2023-09-19T14:56:44;24.70;86.40
32366;DHT22;18837;46.832;16.838;2023-09-19T14:59:10;24.70;86.20
32366;DHT22;18837;46.832;16.838;2023-09-19T15:01:41;24.70;87.30
32366;DHT22;18837;46.832;16.838;2023-09-19T15:04:19;24.70;86.70
32366;DHT22;18837;46.832;16.838;2023-09-19T15:07:07;24.80;86.70
32366;DHT22;18837;46.832;16.838;2023-09-19T15:09:33;24.70;86.70
32366;DHT22;18837;46.832;16.838;2023-09-19T15:11:59;24.70;86.30
32366;DHT22;18837;46.832;16.838;2023-09-19T15:14:25;24.70;87.00
32366;DHT22;18837;46.832;16.838;2023-09-19T15:16:51;24.70;86.60
32366;DHT22;18837;46.832;16.838;2023-09-19T15:19:17;24.70;85.10
32366;DHT22;18837;46.832;16.838;2023-09-19T15:21:43;24.70;84.90
32366;DHT22;18837;46.832;16.838;2023-09-19T15:24:18;24.80;85.00
32366;DHT22;18837;46.832;16.838;2023-09-19T15:26:45;24.80;84.70
32366;DHT22;18837;46.832;16.838;2023-09-19T15:29:11;24.80;83.90
32366;DHT22;18837;46.832;16.838;2023-09-19T15:31:38;24.70;83.90
32366;DHT22;18837;46.832;16.838;2023-09-19T15:34:05;24.70;83.70
32366;DHT22;18837;46.832;16.838;2023-09-19T15:36:32;24.70;83.80
32366;DHT22;18837;46.832;16.838;2023-09-19T15:42:33;24.50;83.90
32366;DHT22;18837;46.832;16.838;2023-09-19T15:44:58;24.50;83.80
32366;DHT22;18837;46.832;16.838;2023-09-19T15:47:24;24.50;84.10
32366;DHT22;18837;46.832;16.838;2023-09-19T15:49:50;24.40;84.50
32366;DHT22;18837;46.832;16.838;2023-09-19T15:52:17;24.40;84.70
32366;DHT22;18837;46.832;16.838;2023-09-19T15:54:43;24.30;84.60
32366;DHT22;18837;46.832;16.838;2023-09-19T15:57:19;24.30;85.00
32366;DHT22;18837;46.832;16.838;2023-09-19T15:59:45;24.30;85.30
32366;DHT22;18837;46.832;16.838;2023-09-19T16:02:12;24.20;85.20
32366;DHT22;18837;46.832;16.838;2023-09-19T16:04:38;24.20;85.50
32366;DHT22;18837;46.832;16.838;2023-09-19T16:07:04;24.10;85.60
32366;DHT22;18837;46.832;16.838;2023-09-19T16:09:30;24.10;86.00
32366;DHT22;18837;46.832;16.838;2023-09-19T16:11:56;24.10;86.30
32366;DHT22;18837;46.832;16.838;2023-09-19T16:14:50;24.00;86.20
32366;DHT22;18837;46.832;16.838;2023-09-19T16:17:28;24.00;86.70
32366;DHT22;18837;46.832;16.838;2023-09-19T16:19:54;24.00;86.30
32366;DHT22;18837;46.832;16.838;2023-09-19T16:22:20;23.90;86.30
32366;DHT22;18837;46.832;16.838;2023-09-19T16:24:46;23.90;86.50
32366;DHT22;18837;46.832;16.838;2023-09-19T16:27:12;23.90;86.40
32366;DHT22;18837;46.832;16.838;2023-09-19T16:29:37;23.90;86.50
32366;DHT22;18837;46.832;16.838;2023-09-19T16:32:15;23.80;86.70
32366;DHT22;18837;46.832;16.838;2023-09-19T16:34:41;23.80;86.70
32366;DHT22;18837;46.832;16.838;2023-09-19T16:37:07;23.80;86.80
32366;DHT22;18837;46.832;16.838;2023-09-19T16:39:33;23.80;86.90
32366;DHT22;18837;46.832;16.838;2023-09-19T16:41:59;23.80;86.80
32366;DHT22;18837;46.832;16.838;2023-09-19T16:44:25;23.70;87.10